Accueil
METAR-TAF:

METAR-TAF

Aéroports :

Aérodrome de Tete-Chingozi

Tete, Mozambique

latitude: 16-06S, longitude: 033-38E, altitude: 160 m

Observation

Le bulletin a été fait il y a 6 minutes, à 09:00 UTC
Vent 5 kt de sud
Température 29°C
Humidité 58%
Pression 1020 hPa
Visibilité 10 km ou plus
Quelques nuages à une hauteur de 2000 ft

METAR: FQTT 300900Z 18005KT 9999 FEW020 29/20 Q1020

Heure: 11:06 (09:06 UTC)

Prévision

Le bulletin a été fait il y a 5 heures et 6 minutes, à 04:00 UTC
Prévision valable du 30 à 06 UTC au 31 à 06 UTC
Vent 3 kt de direction variable
Visibilité 10 km ou plus
Nuages fragmentés à une hauteur de 2000 ft
Nuages épars à une hauteur de 10000 ft
Evoluant progressivement
du 30 à 12 UTC au 30 à 14 UTC
Vent 8 kt de sud/sud-est

TAF: FQTT 300400Z 3006/3106 VRB03KT 9999 BKN020 SCT100 TX32/3013Z TN20/3103Z BECMG 3012/3014 15008KT

Observations et prévisions météorologiques de plus de 4000 aéroports (messages METAR et TAF).

Les stations disponibles sont représentées par des disques jaunes et rouges sur la carte.

Passer la souris dessus pour voir le nom de la station.

Cliquer dessus pour voir les observations et prévisions météorologiques.

Pour changer de carte: cliquez sur les boutons verts avec une croix noire pour zoomer, sur le bouton vert avec un tiret pour effectuer un zoom arrière, ou sur les flèches vertes pour les cartes adjacentes.


METAR-TAF: